sensor_id;sensor_type;location;lat;lon;timestamp;pressure;altitude;pressure_sealevel;temperature;humidity
76746;BME280;65671;49.976;20.038;2024-01-25T00:00:45;97583.94;;;5.77;100.00
76746;BME280;65671;49.976;20.038;2024-01-25T00:03:10;97585.56;;;5.85;100.00
76746;BME280;65671;49.976;20.038;2024-01-25T00:05:36;97586.78;;;5.91;100.00
76746;BME280;65671;49.976;20.038;2024-01-25T00:08:01;97590.31;;;6.02;100.00
76746;BME280;65671;49.976;20.038;2024-01-25T00:10:27;97588.44;;;6.06;100.00
76746;BME280;65671;49.976;20.038;2024-01-25T00:12:52;97600.06;;;6.14;100.00
76746;BME280;65671;49.976;20.038;2024-01-25T00:15:17;97598.53;;;6.16;100.00
76746;BME280;65671;49.976;20.038;2024-01-25T00:17:43;97601.59;;;6.18;100.00
76746;BME280;65671;49.976;20.038;2024-01-25T00:20:09;97606.59;;;6.20;100.00
76746;BME280;65671;49.976;20.038;2024-01-25T00:22:35;97615.41;;;6.17;100.00
76746;BME280;65671;49.976;20.038;2024-01-25T00:25:02;97618.91;;;6.21;100.00
76746;BME280;65671;49.976;20.038;2024-01-25T00:27:27;97626.16;;;6.17;100.00
76746;BME280;65671;49.976;20.038;2024-01-25T00:29:52;97615.81;;;6.19;100.00
76746;BME280;65671;49.976;20.038;2024-01-25T00:32:18;97623.50;;;6.21;100.00
76746;BME280;65671;49.976;20.038;2024-01-25T00:34:43;97611.63;;;6.22;100.00
76746;BME280;65671;49.976;20.038;2024-01-25T00:37:09;97608.50;;;6.16;100.00
76746;BME280;65671;49.976;20.038;2024-01-25T00:39:35;97613.91;;;6.20;100.00
76746;BME280;65671;49.976;20.038;2024-01-25T00:42:05;97603.94;;;6.24;100.00
76746;BME280;65671;49.976;20.038;2024-01-25T00:44:34;97609.28;;;6.16;100.00
76746;BME280;65671;49.976;20.038;2024-01-25T00:47:00;97588.13;;;6.15;100.00
76746;BME280;65671;49.976;20.038;2024-01-25T00:49:25;97608.66;;;6.34;100.00
76746;BME280;65671;49.976;20.038;2024-01-25T00:51:58;97591.78;;;6.37;100.00
76746;BME280;65671;49.976;20.038;2024-01-25T00:54:25;97608.00;;;6.51;100.00
76746;BME280;65671;49.976;20.038;2024-01-25T00:56:51;97608.03;;;6.54;100.00
76746;BME280;65671;49.976;20.038;2024-01-25T00:59:18;97602.69;;;6.58;100.00
76746;BME280;65671;49.976;20.038;2024-01-25T01:01:46;97612.63;;;6.54;100.00
76746;BME280;65671;49.976;20.038;2024-01-25T01:04:12;97614.53;;;6.50;100.00
76746;BME280;65671;49.976;20.038;2024-01-25T01:06:38;97631.09;;;6.55;100.00
76746;BME280;65671;49.976;20.038;2024-01-25T01:09:03;97595.38;;;6.55;100.00
76746;BME280;65671;49.976;20.038;2024-01-25T01:11:29;97614.56;;;6.57;100.00
76746;BME280;65671;49.976;20.038;2024-01-25T01:13:55;97597.28;;;6.54;100.00
76746;BME280;65671;49.976;20.038;2024-01-25T01:16:20;97592.66;;;6.55;100.00
76746;BME280;65671;49.976;20.038;2024-01-25T01:18:46;97606.16;;;6.62;100.00
76746;BME280;65671;49.976;20.038;2024-01-25T01:21:11;97602.69;;;6.61;100.00
76746;BME280;65671;49.976;20.038;2024-01-25T01:23:37;97588.03;;;6.52;100.00
76746;BME280;65671;49.976;20.038;2024-01-25T01:26:04;97601.13;;;6.57;100.00
76746;BME280;65671;49.976;20.038;2024-01-25T01:28:29;97588.13;;;6.66;100.00
76746;BME280;65671;49.976;20.038;2024-01-25T01:30:55;97605.00;;;6.63;100.00
76746;BME280;65671;49.976;20.038;2024-01-25T01:33:20;97586.56;;;6.65;100.00
76746;BME280;65671;49.976;20.038;2024-01-25T01:35:46;97586.53;;;6.58;100.00
76746;BME280;65671;49.976;20.038;2024-01-25T01:38:11;97587.69;;;6.57;100.00
76746;BME280;65671;49.976;20.038;2024-01-25T01:40:37;97580.00;;;6.59;100.00
76746;BME280;65671;49.976;20.038;2024-01-25T01:43:02;97589.59;;;6.56;100.00
76746;BME280;65671;49.976;20.038;2024-01-25T01:45:28;97589.69;;;6.67;100.00
76746;BME280;65671;49.976;20.038;2024-01-25T01:47:55;97611.94;;;6.64;100.00
76746;BME280;65671;49.976;20.038;2024-01-25T01:50:21;97598.06;;;6.58;100.00
76746;BME280;65671;49.976;20.038;2024-01-25T01:52:48;97595.69;;;6.46;100.00
76746;BME280;65671;49.976;20.038;2024-01-25T01:55:15;97595.28;;;6.44;100.00
76746;BME280;65671;49.976;20.038;2024-01-25T01:57:41;97594.91;;;6.46;100.00
76746;BME280;65671;49.976;20.038;2024-01-25T02:00:08;97604.50;;;6.43;100.00
76746;BME280;65671;49.976;20.038;2024-01-25T02:02:34;97601.38;;;6.38;100.00
76746;BME280;65671;49.976;20.038;2024-01-25T02:05:00;97599.81;;;6.33;100.00
76746;BME280;65671;49.976;20.038;2024-01-25T02:07:26;97599.41;;;6.31;100.00
76746;BME280;65671;49.976;20.038;2024-01-25T02:09:52;97591.72;;;6.30;100.00
76746;BME280;65671;49.976;20.038;2024-01-25T02:12:17;97580.97;;;6.33;100.00
76746;BME280;65671;49.976;20.038;2024-01-25T02:14:43;97573.59;;;6.23;100.00
76746;BME280;65671;49.976;20.038;2024-01-25T02:17:08;97582.19;;;6.39;100.00
76746;BME280;65671;49.976;20.038;2024-01-25T02:19:34;97576.41;;;6.37;100.00
76746;BME280;65671;49.976;20.038;2024-01-25T02:21:59;97590.97;;;6.33;100.00
76746;BME280;65671;49.976;20.038;2024-01-25T02:24:25;97586.00;;;6.35;100.00
76746;BME280;65671;49.976;20.038;2024-01-25T02:26:50;97582.94;;;6.36;100.00
76746;BME280;65671;49.976;20.038;2024-01-25T02:29:16;97582.53;;;6.34;100.00
76746;BME280;65671;49.976;20.038;2024-01-25T02:31:41;97580.22;;;6.33;100.00
76746;BME280;65671;49.976;20.038;2024-01-25T02:34:07;97569.44;;;6.33;100.00
76746;BME280;65671;49.976;20.038;2024-01-25T02:36:32;97570.94;;;6.27;100.00
76746;BME280;65671;49.976;20.038;2024-01-25T02:38:57;97577.78;;;6.17;100.00
76746;BME280;65671;49.976;20.038;2024-01-25T02:41:23;97562.78;;;6.12;100.00
76746;BME280;65671;49.976;20.038;2024-01-25T02:43:48;97581.25;;;6.17;100.00
76746;BME280;65671;49.976;20.038;2024-01-25T02:46:14;97569.00;;;6.24;100.00
76746;BME280;65671;49.976;20.038;2024-01-25T02:48:39;97573.97;;;6.22;100.00
76746;BME280;65671;49.976;20.038;2024-01-25T02:51:05;97564.03;;;6.26;100.00
76746;BME280;65671;49.976;20.038;2024-01-25T02:53:30;97572.56;;;6.35;100.00
76746;BME280;65671;49.976;20.038;2024-01-25T02:55:55;97571.00;;;6.34;100.00
76746;BME280;65671;49.976;20.038;2024-01-25T02:58:21;97569.53;;;6.43;100.00
76746;BME280;65671;49.976;20.038;2024-01-25T03:00:47;97563.75;;;6.41;100.00
76746;BME280;65671;49.976;20.038;2024-01-25T03:03:12;97558.03;;;6.50;99.98
76746;BME280;65671;49.976;20.038;2024-01-25T03:05:38;97562.25;;;6.47;100.00
76746;BME280;65671;49.976;20.038;2024-01-25T03:08:03;97582.25;;;6.46;100.00
76746;BME280;65671;49.976;20.038;2024-01-25T03:10:29;97582.66;;;6.52;100.00
76746;BME280;65671;49.976;20.038;2024-01-25T03:12:54;97588.81;;;6.56;99.24
76746;BME280;65671;49.976;20.038;2024-01-25T03:15:20;97569.16;;;6.45;100.00
76746;BME280;65671;49.976;20.038;2024-01-25T03:17:46;97572.97;;;6.44;100.00
76746;BME280;65671;49.976;20.038;2024-01-25T03:20:12;97581.50;;;6.49;98.92
76746;BME280;65671;49.976;20.038;2024-01-25T03:22:37;97582.66;;;6.52;99.18
76746;BME280;65671;49.976;20.038;2024-01-25T03:25:03;97600.31;;;6.53;97.79
76746;BME280;65671;49.976;20.038;2024-01-25T03:27:28;97593.41;;;6.52;97.53
76746;BME280;65671;49.976;20.038;2024-01-25T03:29:53;97577.66;;;6.54;97.14
76746;BME280;65671;49.976;20.038;2024-01-25T03:32:19;97578.78;;;6.46;98.19
76746;BME280;65671;49.976;20.038;2024-01-25T03:34:44;97566.84;;;6.43;98.14
76746;BME280;65671;49.976;20.038;2024-01-25T03:37:10;97602.88;;;6.35;98.20
76746;BME280;65671;49.976;20.038;2024-01-25T03:39:36;97571.78;;;6.38;98.00
76746;BME280;65671;49.976;20.038;2024-01-25T03:42:01;97573.72;;;6.41;98.10
76746;BME280;65671;49.976;20.038;2024-01-25T03:44:27;97579.53;;;6.43;96.77
76746;BME280;65671;49.976;20.038;2024-01-25T03:46:52;97564.88;;;6.37;98.84
76746;BME280;65671;49.976;20.038;2024-01-25T03:49:18;97590.25;;;6.39;98.12
76746;BME280;65671;49.976;20.038;2024-01-25T03:51:44;97610.59;;;6.37;98.87
76746;BME280;65671;49.976;20.038;2024-01-25T03:54:10;97600.59;;;6.34;99.88
76746;BME280;65671;49.976;20.038;2024-01-25T03:56:35;97604.78;;;6.31;100.00
76746;BME280;65671;49.976;20.038;2024-01-25T03:59:01;97610.06;;;6.21;100.00
76746;BME280;65671;49.976;20.038;2024-01-25T04:01:26;97606.44;;;6.02;100.00
76746;BME280;65671;49.976;20.038;2024-01-25T04:03:51;97620.94;;;5.91;100.00
76746;BME280;65671;49.976;20.038;2024-01-25T04:06:17;97615.78;;;5.79;100.00
76746;BME280;65671;49.976;20.038;2024-01-25T04:08:42;97625.16;;;5.55;100.00
76746;BME280;65671;49.976;20.038;2024-01-25T04:11:08;97630.34;;;5.11;100.00
76746;BME280;65671;49.976;20.038;2024-01-25T04:13:35;97632.28;;;4.84;100.00
76746;BME280;65671;49.976;20.038;2024-01-25T04:16:00;97621.31;;;4.67;100.00
76746;BME280;65671;49.976;20.038;2024-01-25T04:18:26;97617.16;;;4.69;100.00
76746;BME280;65671;49.976;20.038;2024-01-25T04:20:51;97604.34;;;4.85;100.00
76746;BME280;65671;49.976;20.038;2024-01-25T04:23:17;97602.94;;;4.95;100.00
76746;BME280;65671;49.976;20.038;2024-01-25T04:25:43;97604.31;;;5.12;100.00
76746;BME280;65671;49.976;20.038;2024-01-25T04:28:08;97589.56;;;5.28;100.00
76746;BME280;65671;49.976;20.038;2024-01-25T04:30:34;97593.03;;;5.32;100.00
76746;BME280;65671;49.976;20.038;2024-01-25T04:32:59;97591.63;;;5.42;100.00
76746;BME280;65671;49.976;20.038;2024-01-25T04:35:24;97586.16;;;5.35;100.00
76746;BME280;65671;49.976;20.038;2024-01-25T04:37:50;97590.56;;;5.50;100.00
76746;BME280;65671;49.976;20.038;2024-01-25T04:40:15;97585.66;;;5.59;100.00
76746;BME280;65671;49.976;20.038;2024-01-25T04:42:41;97592.69;;;5.71;100.00
76746;BME280;65671;49.976;20.038;2024-01-25T04:45:07;97614.25;;;5.78;100.00
76746;BME280;65671;49.976;20.038;2024-01-25T04:47:32;97596.31;;;5.85;100.00
76746;BME280;65671;49.976;20.038;2024-01-25T04:49:58;97590.97;;;5.89;100.00
76746;BME280;65671;49.976;20.038;2024-01-25T04:52:23;97611.34;;;5.90;100.00
76746;BME280;65671;49.976;20.038;2024-01-25T04:54:49;97599.88;;;5.96;100.00
76746;BME280;65671;49.976;20.038;2024-01-25T04:57:14;97579.88;;;5.90;100.00
76746;BME280;65671;49.976;20.038;2024-01-25T04:59:39;97577.63;;;5.99;100.00
76746;BME280;65671;49.976;20.038;2024-01-25T05:02:05;97587.28;;;6.04;100.00
76746;BME280;65671;49.976;20.038;2024-01-25T05:04:30;97590.59;;;5.87;100.00
76746;BME280;65671;49.976;20.038;2024-01-25T05:06:57;97592.59;;;5.97;100.00
76746;BME280;65671;49.976;20.038;2024-01-25T05:09:22;97585.69;;;5.99;100.00
76746;BME280;65671;49.976;20.038;2024-01-25T05:11:48;97588.50;;;6.10;99.87
76746;BME280;65671;49.976;20.038;2024-01-25T05:14:13;97598.47;;;6.09;100.00
76746;BME280;65671;49.976;20.038;2024-01-25T05:16:39;97593.47;;;6.11;100.00
76746;BME280;65671;49.976;20.038;2024-01-25T05:19:04;97593.09;;;6.09;100.00
76746;BME280;65671;49.976;20.038;2024-01-25T05:21:30;97586.56;;;6.10;100.00
76746;BME280;65671;49.976;20.038;2024-01-25T05:23:55;97593.00;;;6.02;100.00
76746;BME280;65671;49.976;20.038;2024-01-25T05:26:21;97613.38;;;6.03;100.00
76746;BME280;65671;49.976;20.038;2024-01-25T05:28:46;97621.00;;;5.98;100.00
76746;BME280;65671;49.976;20.038;2024-01-25T05:31:12;97617.53;;;5.97;100.00
76746;BME280;65671;49.976;20.038;2024-01-25T05:33:42;97612.13;;;5.90;100.00
76746;BME280;65671;49.976;20.038;2024-01-25T05:36:07;97607.38;;;5.80;100.00
76746;BME280;65671;49.976;20.038;2024-01-25T05:38:33;97615.78;;;5.75;100.00
76746;BME280;65671;49.976;20.038;2024-01-25T05:40:59;97614.94;;;5.71;100.00
76746;BME280;65671;49.976;20.038;2024-01-25T05:43:25;97609.84;;;5.59;100.00
76746;BME280;65671;49.976;20.038;2024-01-25T05:45:50;97614.59;;;5.73;100.00
76746;BME280;65671;49.976;20.038;2024-01-25T05:48:16;97613.47;;;5.77;100.00
76746;BME280;65671;49.976;20.038;2024-01-25T05:50:41;97610.28;;;5.64;100.00
76746;BME280;65671;49.976;20.038;2024-01-25T05:53:07;97624.13;;;5.67;100.00
76746;BME280;65671;49.976;20.038;2024-01-25T05:55:32;97613.38;;;5.67;100.00
76746;BME280;65671;49.976;20.038;2024-01-25T05:57:58;97611.84;;;5.66;100.00
76746;BME280;65671;49.976;20.038;2024-01-25T06:00:23;97609.31;;;5.83;100.00
76746;BME280;65671;49.976;20.038;2024-01-25T06:02:48;97618.22;;;5.87;100.00
76746;BME280;65671;49.976;20.038;2024-01-25T06:05:14;97619.69;;;5.85;100.00
76746;BME280;65671;49.976;20.038;2024-01-25T06:07:39;97606.25;;;5.81;100.00
76746;BME280;65671;49.976;20.038;2024-01-25T06:10:06;97603.81;;;5.69;100.00
76746;BME280;65671;49.976;20.038;2024-01-25T06:12:32;97624.22;;;5.77;100.00
76746;BME280;65671;49.976;20.038;2024-01-25T06:14:58;97618.72;;;5.63;100.00
76746;BME280;65671;49.976;20.038;2024-01-25T06:17:23;97618.56;;;5.49;100.00
76746;BME280;65671;49.976;20.038;2024-01-25T06:19:49;97605.13;;;5.49;100.00
76746;BME280;65671;49.976;20.038;2024-01-25T06:22:14;97594.03;;;5.50;100.00
76746;BME280;65671;49.976;20.038;2024-01-25T06:24:42;97593.66;;;5.52;100.00
76746;BME280;65671;49.976;20.038;2024-01-25T06:27:09;97599.34;;;5.47;100.00
76746;BME280;65671;49.976;20.038;2024-01-25T06:29:35;97604.81;;;5.54;100.00
76746;BME280;65671;49.976;20.038;2024-01-25T06:32:01;97606.91;;;5.38;100.00
76746;BME280;65671;49.976;20.038;2024-01-25T06:34:26;97620.75;;;5.40;100.00
76746;BME280;65671;49.976;20.038;2024-01-25T06:36:51;97617.63;;;5.34;100.00
76746;BME280;65671;49.976;20.038;2024-01-25T06:39:17;97611.16;;;5.39;100.00
76746;BME280;65671;49.976;20.038;2024-01-25T06:41:42;97622.56;;;5.32;100.00
76746;BME280;65671;49.976;20.038;2024-01-25T06:44:08;97608.31;;;5.25;100.00
76746;BME280;65671;49.976;20.038;2024-01-25T06:46:34;97606.78;;;5.27;100.00
76746;BME280;65671;49.976;20.038;2024-01-25T06:48:59;97628.72;;;5.33;100.00
76746;BME280;65671;49.976;20.038;2024-01-25T06:51:24;97615.94;;;5.23;100.00
76746;BME280;65671;49.976;20.038;2024-01-25T06:53:50;97629.69;;;5.18;100.00
76746;BME280;65671;49.976;20.038;2024-01-25T06:56:15;97638.06;;;5.13;100.00
76746;BME280;65671;49.976;20.038;2024-01-25T06:58:42;97637.81;;;4.95;100.00
76746;BME280;65671;49.976;20.038;2024-01-25T07:01:07;97643.59;;;4.97;100.00
76746;BME280;65671;49.976;20.038;2024-01-25T07:03:32;97652.69;;;4.89;100.00
76746;BME280;65671;49.976;20.038;2024-01-25T07:05:58;97634.50;;;4.79;100.00
76746;BME280;65671;49.976;20.038;2024-01-25T07:08:24;97632.09;;;4.70;100.00
76746;BME280;65671;49.976;20.038;2024-01-25T07:10:49;97638.66;;;4.73;100.00
76746;BME280;65671;49.976;20.038;2024-01-25T07:13:15;97635.97;;;4.73;100.00
76746;BME280;65671;49.976;20.038;2024-01-25T07:15:41;97633.91;;;4.63;100.00
76746;BME280;65671;49.976;20.038;2024-01-25T07:18:06;97626.38;;;4.72;100.00
76746;BME280;65671;49.976;20.038;2024-01-25T07:20:32;97629.94;;;4.79;100.00
76746;BME280;65671;49.976;20.038;2024-01-25T07:22:57;97618.84;;;4.81;100.00
76746;BME280;65671;49.976;20.038;2024-01-25T07:25:22;97627.66;;;4.81;100.00
76746;BME280;65671;49.976;20.038;2024-01-25T07:27:48;97627.97;;;4.76;100.00
76746;BME280;65671;49.976;20.038;2024-01-25T07:30:14;97616.91;;;4.81;100.00
76746;BME280;65671;49.976;20.038;2024-01-25T07:32:40;97612.66;;;4.77;100.00
76746;BME280;65671;49.976;20.038;2024-01-25T07:35:09;97628.13;;;4.87;100.00
76746;BME280;65671;49.976;20.038;2024-01-25T07:37:38;97624.72;;;4.90;100.00
76746;BME280;65671;49.976;20.038;2024-01-25T07:40:04;97626.69;;;4.93;100.00
76746;BME280;65671;49.976;20.038;2024-01-25T07:42:30;97621.06;;;5.05;100.00
76746;BME280;65671;49.976;20.038;2024-01-25T07:44:56;97626.41;;;5.01;100.00
76746;BME280;65671;49.976;20.038;2024-01-25T07:47:21;97623.72;;;5.01;100.00
76746;BME280;65671;49.976;20.038;2024-01-25T07:49:47;97612.16;;;4.97;100.00
76746;BME280;65671;49.976;20.038;2024-01-25T07:52:13;97637.88;;;4.98;100.00
76746;BME280;65671;49.976;20.038;2024-01-25T07:54:39;97631.72;;;4.98;100.00
76746;BME280;65671;49.976;20.038;2024-01-25T07:57:04;97630.19;;;4.97;100.00
76746;BME280;65671;49.976;20.038;2024-01-25T07:59:30;97641.78;;;5.04;100.00
76746;BME280;65671;49.976;20.038;2024-01-25T08:01:55;97636.59;;;4.89;100.00
76746;BME280;65671;49.976;20.038;2024-01-25T08:04:21;97649.34;;;4.99;100.00
76746;BME280;65671;49.976;20.038;2024-01-25T08:06:46;97657.88;;;4.78;100.00
76746;BME280;65671;49.976;20.038;2024-01-25T08:09:12;97639.22;;;4.85;100.00
76746;BME280;65671;49.976;20.038;2024-01-25T08:11:38;97661.72;;;4.77;100.00
76746;BME280;65671;49.976;20.038;2024-01-25T08:14:04;97680.28;;;4.63;100.00
76746;BME280;65671;49.976;20.038;2024-01-25T08:16:30;97689.31;;;4.55;100.00
76746;BME280;65671;49.976;20.038;2024-01-25T08:18:56;97673.41;;;4.43;100.00
76746;BME280;65671;49.976;20.038;2024-01-25T08:21:22;97683.09;;;4.47;100.00
76746;BME280;65671;49.976;20.038;2024-01-25T08:23:48;97674.09;;;4.36;100.00
76746;BME280;65671;49.976;20.038;2024-01-25T08:26:14;97680.19;;;4.33;100.00
76746;BME280;65671;49.976;20.038;2024-01-25T08:28:40;97672.06;;;4.30;100.00
76746;BME280;65671;49.976;20.038;2024-01-25T08:31:06;97673.63;;;4.31;100.00
76746;BME280;65671;49.976;20.038;2024-01-25T08:33:32;97677.31;;;4.23;100.00
76746;BME280;65671;49.976;20.038;2024-01-25T08:35:58;97667.28;;;4.20;100.00
76746;BME280;65671;49.976;20.038;2024-01-25T08:38:27;97668.53;;;4.26;100.00
76746;BME280;65671;49.976;20.038;2024-01-25T08:40:52;97663.91;;;4.23;100.00
76746;BME280;65671;49.976;20.038;2024-01-25T08:43:18;97663.09;;;4.19;100.00
76746;BME280;65671;49.976;20.038;2024-01-25T08:45:43;97662.00;;;4.23;100.00
76746;BME280;65671;49.976;20.038;2024-01-25T08:48:09;97650.88;;;4.21;100.00
76746;BME280;65671;49.976;20.038;2024-01-25T08:50:35;97667.13;;;4.32;100.00
76746;BME280;65671;49.976;20.038;2024-01-25T08:53:01;97665.53;;;4.27;100.00
76746;BME280;65671;49.976;20.038;2024-01-25T08:55:26;97670.50;;;4.29;100.00
76746;BME280;65671;49.976;20.038;2024-01-25T08:57:52;97672.78;;;4.27;100.00
76746;BME280;65671;49.976;20.038;2024-01-25T09:00:17;97672.13;;;4.33;100.00
76746;BME280;65671;49.976;20.038;2024-01-25T09:02:43;97680.66;;;4.39;100.00
76746;BME280;65671;49.976;20.038;2024-01-25T09:05:09;97672.69;;;4.46;100.00
76746;BME280;65671;49.976;20.038;2024-01-25T09:07:35;97670.56;;;4.55;100.00
76746;BME280;65671;49.976;20.038;2024-01-25T09:10:01;97664.84;;;4.57;100.00
76746;BME280;65671;49.976;20.038;2024-01-25T09:12:27;97666.56;;;4.68;100.00
76746;BME280;65671;49.976;20.038;2024-01-25T09:14:52;97669.50;;;4.60;100.00
76746;BME280;65671;49.976;20.038;2024-01-25T09:17:18;97669.56;;;4.63;100.00
76746;BME280;65671;49.976;20.038;2024-01-25T09:19:50;97671.25;;;4.75;100.00
76746;BME280;65671;49.976;20.038;2024-01-25T09:22:17;97678.25;;;4.83;100.00
76746;BME280;65671;49.976;20.038;2024-01-25T09:24:44;97665.91;;;4.78;100.00
76746;BME280;65671;49.976;20.038;2024-01-25T09:27:10;97671.78;;;4.84;100.00
76746;BME280;65671;49.976;20.038;2024-01-25T09:29:39;97667.59;;;4.86;100.00
76746;BME280;65671;49.976;20.038;2024-01-25T09:32:06;97667.06;;;4.77;100.00
76746;BME280;65671;49.976;20.038;2024-01-25T09:34:33;97663.56;;;4.73;100.00
76746;BME280;65671;49.976;20.038;2024-01-25T09:36:58;97657.94;;;4.82;100.00
76746;BME280;65671;49.976;20.038;2024-01-25T09:39:23;97660.78;;;4.92;100.00
76746;BME280;65671;49.976;20.038;2024-01-25T09:41:49;97672.31;;;4.96;100.00
76746;BME280;65671;49.976;20.038;2024-01-25T09:44:14;97663.16;;;4.97;100.00
76746;BME280;65671;49.976;20.038;2024-01-25T09:46:42;97675.47;;;4.76;100.00
76746;BME280;65671;49.976;20.038;2024-01-25T09:49:08;97680.63;;;4.88;100.00
76746;BME280;65671;49.976;20.038;2024-01-25T09:51:37;97686.88;;;4.95;100.00
76746;BME280;65671;49.976;20.038;2024-01-25T09:54:05;97675.22;;;4.84;100.00
76746;BME280;65671;49.976;20.038;2024-01-25T09:56:33;97681.53;;;4.95;100.00
76746;BME280;65671;49.976;20.038;2024-01-25T09:58:58;97671.59;;;4.99;100.00
76746;BME280;65671;49.976;20.038;2024-01-25T10:01:24;97664.38;;;5.03;100.00
76746;BME280;65671;49.976;20.038;2024-01-25T10:03:49;97667.91;;;5.11;100.00
76746;BME280;65671;49.976;20.038;2024-01-25T10:06:16;97673.00;;;5.16;100.00
76746;BME280;65671;49.976;20.038;2024-01-25T10:08:42;97685.00;;;4.99;100.00
76746;BME280;65671;49.976;20.038;2024-01-25T10:11:08;97685.97;;;5.14;100.00
76746;BME280;65671;49.976;20.038;2024-01-25T10:13:41;97683.75;;;5.20;100.00
76746;BME280;65671;49.976;20.038;2024-01-25T10:16:07;97682.63;;;5.21;100.00
76746;BME280;65671;49.976;20.038;2024-01-25T10:18:35;97696.19;;;5.01;100.00
76746;BME280;65671;49.976;20.038;2024-01-25T10:21:01;97684.19;;;5.22;100.00
76746;BME280;65671;49.976;20.038;2024-01-25T10:23:28;97684.59;;;5.24;100.00
76746;BME280;65671;49.976;20.038;2024-01-25T10:25:56;97698.72;;;5.21;100.00
76746;BME280;65671;49.976;20.038;2024-01-25T10:28:23;97715.47;;;5.11;100.00
76746;BME280;65671;49.976;20.038;2024-01-25T10:30:50;97719.63;;;5.08;100.00
76746;BME280;65671;49.976;20.038;2024-01-25T10:33:16;97694.75;;;5.11;100.00
76746;BME280;65671;49.976;20.038;2024-01-25T10:35:43;97704.69;;;5.07;100.00
76746;BME280;65671;49.976;20.038;2024-01-25T10:38:11;97691.41;;;5.18;100.00
76746;BME280;65671;49.976;20.038;2024-01-25T10:40:40;97696.44;;;5.23;100.00
76746;BME280;65671;49.976;20.038;2024-01-25T10:43:06;97707.63;;;5.25;100.00
76746;BME280;65671;49.976;20.038;2024-01-25T10:45:32;97710.69;;;5.27;100.00
76746;BME280;65671;49.976;20.038;2024-01-25T10:47:58;97720.78;;;5.07;100.00
76746;BME280;65671;49.976;20.038;2024-01-25T10:50:27;97696.44;;;5.23;100.00
76746;BME280;65671;49.976;20.038;2024-01-25T10:52:52;97693.09;;;5.29;100.00
76746;BME280;65671;49.976;20.038;2024-01-25T10:55:19;97696.22;;;5.35;100.00
76746;BME280;65671;49.976;20.038;2024-01-25T10:57:45;97695.09;;;5.36;100.00
76746;BME280;65671;49.976;20.038;2024-01-25T11:00:13;97688.28;;;5.42;100.00
76746;BME280;65671;49.976;20.038;2024-01-25T11:02:40;97700.94;;;5.41;100.00
76746;BME280;65671;49.976;20.038;2024-01-25T11:05:13;97704.66;;;5.33;100.00
76746;BME280;65671;49.976;20.038;2024-01-25T11:07:45;97709.88;;;5.52;100.00
76746;BME280;65671;49.976;20.038;2024-01-25T11:10:18;97706.00;;;5.50;100.00
76746;BME280;65671;49.976;20.038;2024-01-25T11:13:13;97700.47;;;5.36;100.00
76746;BME280;65671;49.976;20.038;2024-01-25T11:15:41;97706.22;;;5.34;100.00
76746;BME280;65671;49.976;20.038;2024-01-25T11:18:08;97708.06;;;5.30;100.00
76746;BME280;65671;49.976;20.038;2024-01-25T11:20:35;97705.59;;;5.18;100.00
76746;BME280;65671;49.976;20.038;2024-01-25T11:23:05;97711.84;;;5.26;100.00
76746;BME280;65671;49.976;20.038;2024-01-25T11:25:35;97697.69;;;5.29;100.00
76746;BME280;65671;49.976;20.038;2024-01-25T11:28:02;97694.28;;;5.32;100.00
76746;BME280;65671;49.976;20.038;2024-01-25T11:30:32;97692.09;;;5.41;100.00
76746;BME280;65671;49.976;20.038;2024-01-25T11:32:58;97696.44;;;5.49;100.00
76746;BME280;65671;49.976;20.038;2024-01-25T11:35:24;97701.09;;;5.55;100.00
76746;BME280;65671;49.976;20.038;2024-01-25T11:37:50;97690.84;;;5.64;100.00
76746;BME280;65671;49.976;20.038;2024-01-25T11:40:18;97697.78;;;5.66;100.00
76746;BME280;65671;49.976;20.038;2024-01-25T11:42:47;97708.97;;;5.71;100.00
76746;BME280;65671;49.976;20.038;2024-01-25T11:45:13;97715.63;;;5.81;100.00
76746;BME280;65671;49.976;20.038;2024-01-25T11:47:40;97718.78;;;5.86;100.00
76746;BME280;65671;49.976;20.038;2024-01-25T11:50:07;97723.38;;;5.86;100.00
76746;BME280;65671;49.976;20.038;2024-01-25T11:52:33;97736.72;;;5.82;100.00
76746;BME280;65671;49.976;20.038;2024-01-25T11:55:02;97730.94;;;5.80;100.00
76746;BME280;65671;49.976;20.038;2024-01-25T11:57:30;97723.25;;;5.79;100.00
76746;BME280;65671;49.976;20.038;2024-01-25T11:59:56;97737.16;;;5.84;100.00
76746;BME280;65671;49.976;20.038;2024-01-25T12:02:24;97736.94;;;5.67;100.00
76746;BME280;65671;49.976;20.038;2024-01-25T12:04:50;97752.06;;;5.82;100.00
76746;BME280;65671;49.976;20.038;2024-01-25T12:07:19;97735.53;;;5.80;100.00
76746;BME280;65671;49.976;20.038;2024-01-25T12:09:45;97752.19;;;5.89;100.00
76746;BME280;65671;49.976;20.038;2024-01-25T12:12:10;97749.25;;;5.71;100.00
76746;BME280;65671;49.976;20.038;2024-01-25T12:14:36;97756.31;;;5.83;100.00
76746;BME280;65671;49.976;20.038;2024-01-25T12:17:03;97747.91;;;5.84;100.00
76746;BME280;65671;49.976;20.038;2024-01-25T12:19:29;97760.22;;;5.85;100.00
76746;BME280;65671;49.976;20.038;2024-01-25T12:21:55;97752.63;;;5.64;100.00
76746;BME280;65671;49.976;20.038;2024-01-25T12:24:21;97776.03;;;5.64;100.00
76746;BME280;65671;49.976;20.038;2024-01-25T12:26:47;97756.47;;;5.63;100.00
76746;BME280;65671;49.976;20.038;2024-01-25T12:29:15;97753.78;;;5.63;100.00
76746;BME280;65671;49.976;20.038;2024-01-25T12:31:45;97759.81;;;5.57;100.00
76746;BME280;65671;49.976;20.038;2024-01-25T12:34:15;97765.81;;;5.47;100.00
76746;BME280;65671;49.976;20.038;2024-01-25T12:36:41;97760.88;;;5.49;100.00
76746;BME280;65671;49.976;20.038;2024-01-25T12:39:06;97755.97;;;5.54;100.00
76746;BME280;65671;49.976;20.038;2024-01-25T12:41:32;97754.47;;;5.57;100.00
76746;BME280;65671;49.976;20.038;2024-01-25T12:43:57;97756.75;;;5.55;100.00